sensor_id;sensor_type;location;lat;lon;timestamp;temperature;humidity
41720;DHT22;27405;53.316;-6.294;2023-05-29T00:00:37;14.10;77.10
41720;DHT22;27405;53.316;-6.294;2023-05-29T00:03:03;14.10;76.70
41720;DHT22;27405;53.316;-6.294;2023-05-29T00:05:30;14.00;76.70
41720;DHT22;27405;53.316;-6.294;2023-05-29T00:07:56;14.00;76.90
41720;DHT22;27405;53.316;-6.294;2023-05-29T00:10:21;14.00;77.00
41720;DHT22;27405;53.316;-6.294;2023-05-29T00:12:47;14.00;77.20
41720;DHT22;27405;53.316;-6.294;2023-05-29T00:15:13;14.00;77.30
41720;DHT22;27405;53.316;-6.294;2023-05-29T00:17:38;13.90;77.40
41720;DHT22;27405;53.316;-6.294;2023-05-29T00:20:06;13.90;77.60
41720;DHT22;27405;53.316;-6.294;2023-05-29T00:22:35;13.80;77.60
41720;DHT22;27405;53.316;-6.294;2023-05-29T00:25:04;13.80;77.80
41720;DHT22;27405;53.316;-6.294;2023-05-29T00:27:30;13.80;78.00
41720;DHT22;27405;53.316;-6.294;2023-05-29T00:29:58;13.80;78.00
41720;DHT22;27405;53.316;-6.294;2023-05-29T00:32:25;13.80;78.20
41720;DHT22;27405;53.316;-6.294;2023-05-29T00:34:51;13.70;78.40
41720;DHT22;27405;53.316;-6.294;2023-05-29T00:37:17;13.70;78.40
41720;DHT22;27405;53.316;-6.294;2023-05-29T00:39:42;13.70;78.60
41720;DHT22;27405;53.316;-6.294;2023-05-29T00:42:09;13.70;78.70
41720;DHT22;27405;53.316;-6.294;2023-05-29T00:44:34;13.70;78.80
41720;DHT22;27405;53.316;-6.294;2023-05-29T00:47:01;13.70;78.90
41720;DHT22;27405;53.316;-6.294;2023-05-29T00:49:27;13.70;79.10
41720;DHT22;27405;53.316;-6.294;2023-05-29T00:51:54;13.60;79.10
41720;DHT22;27405;53.316;-6.294;2023-05-29T00:54:26;13.60;79.30
41720;DHT22;27405;53.316;-6.294;2023-05-29T00:56:54;13.60;79.40
41720;DHT22;27405;53.316;-6.294;2023-05-29T00:59:21;13.60;79.40
41720;DHT22;27405;53.316;-6.294;2023-05-29T01:01:49;13.60;79.50
41720;DHT22;27405;53.316;-6.294;2023-05-29T01:04:16;13.60;79.60
41720;DHT22;27405;53.316;-6.294;2023-05-29T01:06:42;13.60;79.70
41720;DHT22;27405;53.316;-6.294;2023-05-29T01:09:08;13.60;79.80
41720;DHT22;27405;53.316;-6.294;2023-05-29T01:14:11;13.50;80.10
41720;DHT22;27405;53.316;-6.294;2023-05-29T01:17:06;13.50;80.20
41720;DHT22;27405;53.316;-6.294;2023-05-29T01:25:17;13.50;80.50
41720;DHT22;27405;53.316;-6.294;2023-05-29T01:27:45;13.40;80.60
41720;DHT22;27405;53.316;-6.294;2023-05-29T01:30:14;13.40;80.60
41720;DHT22;27405;53.316;-6.294;2023-05-29T01:32:40;13.40;80.80
41720;DHT22;27405;53.316;-6.294;2023-05-29T01:35:07;13.40;80.90
41720;DHT22;27405;53.316;-6.294;2023-05-29T01:37:33;13.40;81.00
41720;DHT22;27405;53.316;-6.294;2023-05-29T01:39:59;13.40;81.10
41720;DHT22;27405;53.316;-6.294;2023-05-29T01:42:26;13.40;81.30
41720;DHT22;27405;53.316;-6.294;2023-05-29T01:44:55;13.40;81.40
41720;DHT22;27405;53.316;-6.294;2023-05-29T01:47:21;13.40;81.40
41720;DHT22;27405;53.316;-6.294;2023-05-29T01:49:48;13.30;81.50
41720;DHT22;27405;53.316;-6.294;2023-05-29T01:52:15;13.30;81.70
41720;DHT22;27405;53.316;-6.294;2023-05-29T01:54:41;13.30;81.70
41720;DHT22;27405;53.316;-6.294;2023-05-29T01:57:07;13.30;81.80
41720;DHT22;27405;53.316;-6.294;2023-05-29T01:59:33;13.30;82.00
41720;DHT22;27405;53.316;-6.294;2023-05-29T02:02:10;13.20;82.00
41720;DHT22;27405;53.316;-6.294;2023-05-29T02:04:37;13.20;82.40
41720;DHT22;27405;53.316;-6.294;2023-05-29T02:07:04;13.20;82.40
41720;DHT22;27405;53.316;-6.294;2023-05-29T02:09:30;13.20;82.50
41720;DHT22;27405;53.316;-6.294;2023-05-29T02:11:56;13.20;82.60
41720;DHT22;27405;53.316;-6.294;2023-05-29T02:14:22;13.10;82.70
41720;DHT22;27405;53.316;-6.294;2023-05-29T02:16:50;13.10;82.90
41720;DHT22;27405;53.316;-6.294;2023-05-29T02:19:18;13.10;83.10
41720;DHT22;27405;53.316;-6.294;2023-05-29T02:21:55;13.10;83.20
41720;DHT22;27405;53.316;-6.294;2023-05-29T02:24:21;13.10;83.40
41720;DHT22;27405;53.316;-6.294;2023-05-29T02:26:48;13.10;83.40
41720;DHT22;27405;53.316;-6.294;2023-05-29T02:29:19;13.10;83.70
41720;DHT22;27405;53.316;-6.294;2023-05-29T02:31:44;13.20;83.80
41720;DHT22;27405;53.316;-6.294;2023-05-29T02:34:10;13.20;83.90
41720;DHT22;27405;53.316;-6.294;2023-05-29T02:36:35;13.30;84.00
41720;DHT22;27405;53.316;-6.294;2023-05-29T02:39:03;13.30;84.10
41720;DHT22;27405;53.316;-6.294;2023-05-29T02:41:28;13.40;84.20
41720;DHT22;27405;53.316;-6.294;2023-05-29T02:43:56;13.40;84.20
41720;DHT22;27405;53.316;-6.294;2023-05-29T02:46:21;13.50;84.10
41720;DHT22;27405;53.316;-6.294;2023-05-29T02:48:47;13.60;84.20
41720;DHT22;27405;53.316;-6.294;2023-05-29T02:51:13;13.60;84.20
41720;DHT22;27405;53.316;-6.294;2023-05-29T02:53:39;13.70;84.10
41720;DHT22;27405;53.316;-6.294;2023-05-29T02:56:08;13.80;83.90
41720;DHT22;27405;53.316;-6.294;2023-05-29T02:58:34;13.80;83.70
41720;DHT22;27405;53.316;-6.294;2023-05-29T03:01:01;13.90;83.60
41720;DHT22;27405;53.316;-6.294;2023-05-29T03:03:29;13.80;83.40
41720;DHT22;27405;53.316;-6.294;2023-05-29T03:05:55;13.90;83.50
41720;DHT22;27405;53.316;-6.294;2023-05-29T03:08:21;13.80;83.50
41720;DHT22;27405;53.316;-6.294;2023-05-29T03:10:46;13.90;83.60
41720;DHT22;27405;53.316;-6.294;2023-05-29T03:13:13;13.90;83.60
41720;DHT22;27405;53.316;-6.294;2023-05-29T03:15:38;13.80;83.50
41720;DHT22;27405;53.316;-6.294;2023-05-29T03:18:04;13.80;83.50
41720;DHT22;27405;53.316;-6.294;2023-05-29T03:20:30;13.80;83.50
41720;DHT22;27405;53.316;-6.294;2023-05-29T03:22:55;13.80;83.70
41720;DHT22;27405;53.316;-6.294;2023-05-29T03:25:22;13.80;83.70
41720;DHT22;27405;53.316;-6.294;2023-05-29T03:27:48;13.80;83.80
41720;DHT22;27405;53.316;-6.294;2023-05-29T03:30:14;13.70;83.80
41720;DHT22;27405;53.316;-6.294;2023-05-29T03:32:39;13.70;83.90
41720;DHT22;27405;53.316;-6.294;2023-05-29T03:35:06;13.70;83.90
41720;DHT22;27405;53.316;-6.294;2023-05-29T03:37:31;13.60;84.00
41720;DHT22;27405;53.316;-6.294;2023-05-29T03:39:57;13.60;84.10
41720;DHT22;27405;53.316;-6.294;2023-05-29T03:42:23;13.40;84.20
41720;DHT22;27405;53.316;-6.294;2023-05-29T03:44:48;13.40;84.60
41720;DHT22;27405;53.316;-6.294;2023-05-29T03:47:14;13.40;84.80
41720;DHT22;27405;53.316;-6.294;2023-05-29T03:49:40;13.30;85.10
41720;DHT22;27405;53.316;-6.294;2023-05-29T03:52:05;13.30;85.20
41720;DHT22;27405;53.316;-6.294;2023-05-29T03:54:32;13.30;85.30
41720;DHT22;27405;53.316;-6.294;2023-05-29T03:56:57;13.20;85.50
41720;DHT22;27405;53.316;-6.294;2023-05-29T03:59:23;13.20;85.80
41720;DHT22;27405;53.316;-6.294;2023-05-29T04:01:49;13.20;85.90
41720;DHT22;27405;53.316;-6.294;2023-05-29T04:04:14;13.10;86.10
41720;DHT22;27405;53.316;-6.294;2023-05-29T04:06:40;13.10;86.30
41720;DHT22;27405;53.316;-6.294;2023-05-29T04:09:07;13.10;86.40
41720;DHT22;27405;53.316;-6.294;2023-05-29T04:11:34;13.10;86.60
41720;DHT22;27405;53.316;-6.294;2023-05-29T04:14:03;13.10;86.70
41720;DHT22;27405;53.316;-6.294;2023-05-29T04:16:29;13.00;87.00
41720;DHT22;27405;53.316;-6.294;2023-05-29T04:18:55;13.00;87.00
41720;DHT22;27405;53.316;-6.294;2023-05-29T04:21:21;13.00;87.30
41720;DHT22;27405;53.316;-6.294;2023-05-29T04:23:46;13.00;87.50
41720;DHT22;27405;53.316;-6.294;2023-05-29T04:26:12;13.00;87.60
41720;DHT22;27405;53.316;-6.294;2023-05-29T04:28:38;13.00;87.70
41720;DHT22;27405;53.316;-6.294;2023-05-29T04:31:05;13.00;87.70
41720;DHT22;27405;53.316;-6.294;2023-05-29T04:33:33;13.00;87.80
41720;DHT22;27405;53.316;-6.294;2023-05-29T04:36:02;13.00;87.80
41720;DHT22;27405;53.316;-6.294;2023-05-29T04:38:29;13.00;87.90
41720;DHT22;27405;53.316;-6.294;2023-05-29T04:40:56;13.00;88.10
41720;DHT22;27405;53.316;-6.294;2023-05-29T04:43:23;13.10;88.40
41720;DHT22;27405;53.316;-6.294;2023-05-29T04:45:52;13.10;88.50
41720;DHT22;27405;53.316;-6.294;2023-05-29T04:48:18;13.20;88.20
41720;DHT22;27405;53.316;-6.294;2023-05-29T04:50:43;13.30;88.00
41720;DHT22;27405;53.316;-6.294;2023-05-29T04:53:10;13.30;88.00
41720;DHT22;27405;53.316;-6.294;2023-05-29T04:55:36;13.40;88.10
41720;DHT22;27405;53.316;-6.294;2023-05-29T04:58:02;13.50;88.20
41720;DHT22;27405;53.316;-6.294;2023-05-29T05:00:28;13.60;88.20
41720;DHT22;27405;53.316;-6.294;2023-05-29T05:02:54;13.60;87.90
41720;DHT22;27405;53.316;-6.294;2023-05-29T05:05:20;13.70;87.70
41720;DHT22;27405;53.316;-6.294;2023-05-29T05:07:46;13.80;87.60
41720;DHT22;27405;53.316;-6.294;2023-05-29T05:10:12;13.90;87.50
41720;DHT22;27405;53.316;-6.294;2023-05-29T05:12:38;14.00;87.30
41720;DHT22;27405;53.316;-6.294;2023-05-29T05:15:04;14.00;87.10
41720;DHT22;27405;53.316;-6.294;2023-05-29T05:17:30;14.10;86.90
41720;DHT22;27405;53.316;-6.294;2023-05-29T05:19:56;14.10;86.80
41720;DHT22;27405;53.316;-6.294;2023-05-29T05:22:21;14.20;86.80
41720;DHT22;27405;53.316;-6.294;2023-05-29T05:24:47;14.30;86.70
41720;DHT22;27405;53.316;-6.294;2023-05-29T05:27:13;14.30;86.60
41720;DHT22;27405;53.316;-6.294;2023-05-29T05:29:39;14.30;86.60
41720;DHT22;27405;53.316;-6.294;2023-05-29T05:32:05;14.40;87.20
41720;DHT22;27405;53.316;-6.294;2023-05-29T05:34:31;14.50;86.50
41720;DHT22;27405;53.316;-6.294;2023-05-29T05:36:56;14.50;86.40
41720;DHT22;27405;53.316;-6.294;2023-05-29T05:39:22;14.60;86.50
41720;DHT22;27405;53.316;-6.294;2023-05-29T05:41:48;14.60;86.50
41720;DHT22;27405;53.316;-6.294;2023-05-29T05:44:13;14.70;86.40
41720;DHT22;27405;53.316;-6.294;2023-05-29T05:46:39;14.80;86.30
41720;DHT22;27405;53.316;-6.294;2023-05-29T05:49:05;14.80;86.10
41720;DHT22;27405;53.316;-6.294;2023-05-29T05:51:30;14.90;86.00
41720;DHT22;27405;53.316;-6.294;2023-05-29T05:53:56;14.90;86.00
41720;DHT22;27405;53.316;-6.294;2023-05-29T05:56:22;15.00;86.10
41720;DHT22;27405;53.316;-6.294;2023-05-29T05:58:48;15.00;86.20
41720;DHT22;27405;53.316;-6.294;2023-05-29T06:01:15;15.00;86.40
41720;DHT22;27405;53.316;-6.294;2023-05-29T06:03:41;15.10;86.30
41720;DHT22;27405;53.316;-6.294;2023-05-29T06:06:06;15.10;86.20
41720;DHT22;27405;53.316;-6.294;2023-05-29T06:08:34;15.20;86.20
41720;DHT22;27405;53.316;-6.294;2023-05-29T06:10:59;15.20;86.20
41720;DHT22;27405;53.316;-6.294;2023-05-29T06:13:25;15.20;86.30
41720;DHT22;27405;53.316;-6.294;2023-05-29T06:15:51;15.20;86.40
41720;DHT22;27405;53.316;-6.294;2023-05-29T06:18:17;15.30;86.60
41720;DHT22;27405;53.316;-6.294;2023-05-29T06:20:42;15.30;86.90
41720;DHT22;27405;53.316;-6.294;2023-05-29T06:23:08;15.30;87.00
41720;DHT22;27405;53.316;-6.294;2023-05-29T06:25:34;15.30;87.40
41720;DHT22;27405;53.316;-6.294;2023-05-29T06:28:03;15.30;87.90
41720;DHT22;27405;53.316;-6.294;2023-05-29T06:30:31;15.30;88.30
41720;DHT22;27405;53.316;-6.294;2023-05-29T06:32:57;15.30;88.40
41720;DHT22;27405;53.316;-6.294;2023-05-29T06:35:22;15.20;88.60
41720;DHT22;27405;53.316;-6.294;2023-05-29T06:37:48;15.30;89.00
41720;DHT22;27405;53.316;-6.294;2023-05-29T06:40:14;15.20;89.10
41720;DHT22;27405;53.316;-6.294;2023-05-29T06:42:41;15.20;89.10
41720;DHT22;27405;53.316;-6.294;2023-05-29T06:45:10;15.30;89.30
41720;DHT22;27405;53.316;-6.294;2023-05-29T06:47:39;15.20;89.40
41720;DHT22;27405;53.316;-6.294;2023-05-29T06:50:05;15.30;88.80
41720;DHT22;27405;53.316;-6.294;2023-05-29T06:52:31;15.30;89.00
41720;DHT22;27405;53.316;-6.294;2023-05-29T06:54:57;15.30;89.20
41720;DHT22;27405;53.316;-6.294;2023-05-29T06:57:22;15.30;89.30
41720;DHT22;27405;53.316;-6.294;2023-05-29T06:59:48;15.40;89.40
41720;DHT22;27405;53.316;-6.294;2023-05-29T07:02:13;15.40;89.50
41720;DHT22;27405;53.316;-6.294;2023-05-29T07:04:39;15.50;89.60
41720;DHT22;27405;53.316;-6.294;2023-05-29T07:07:05;15.60;89.60
41720;DHT22;27405;53.316;-6.294;2023-05-29T07:09:30;15.70;89.50
41720;DHT22;27405;53.316;-6.294;2023-05-29T07:11:56;15.70;89.40
41720;DHT22;27405;53.316;-6.294;2023-05-29T07:14:22;15.70;89.30
41720;DHT22;27405;53.316;-6.294;2023-05-29T07:16:47;15.80;89.30
41720;DHT22;27405;53.316;-6.294;2023-05-29T07:19:13;15.80;89.30
41720;DHT22;27405;53.316;-6.294;2023-05-29T07:21:39;15.80;89.20
41720;DHT22;27405;53.316;-6.294;2023-05-29T07:24:05;15.80;89.30
41720;DHT22;27405;53.316;-6.294;2023-05-29T07:26:31;15.80;89.30
41720;DHT22;27405;53.316;-6.294;2023-05-29T07:28:57;15.80;89.40
41720;DHT22;27405;53.316;-6.294;2023-05-29T07:31:23;15.80;89.40
41720;DHT22;27405;53.316;-6.294;2023-05-29T07:33:49;15.90;89.50
41720;DHT22;27405;53.316;-6.294;2023-05-29T07:36:17;15.80;89.40
41720;DHT22;27405;53.316;-6.294;2023-05-29T07:38:43;15.90;89.50
41720;DHT22;27405;53.316;-6.294;2023-05-29T07:41:09;15.90;89.50
41720;DHT22;27405;53.316;-6.294;2023-05-29T07:43:35;16.00;89.40
41720;DHT22;27405;53.316;-6.294;2023-05-29T07:46:01;16.00;89.20
41720;DHT22;27405;53.316;-6.294;2023-05-29T07:48:26;16.00;89.30
41720;DHT22;27405;53.316;-6.294;2023-05-29T07:50:52;16.10;89.20
41720;DHT22;27405;53.316;-6.294;2023-05-29T07:53:18;16.10;88.90
41720;DHT22;27405;53.316;-6.294;2023-05-29T07:55:44;16.10;88.80
41720;DHT22;27405;53.316;-6.294;2023-05-29T07:58:09;16.10;89.00
41720;DHT22;27405;53.316;-6.294;2023-05-29T08:00:37;16.20;89.00
41720;DHT22;27405;53.316;-6.294;2023-05-29T08:03:04;16.20;89.00
41720;DHT22;27405;53.316;-6.294;2023-05-29T08:05:30;16.30;88.80
41720;DHT22;27405;53.316;-6.294;2023-05-29T08:07:57;16.30;88.50
41720;DHT22;27405;53.316;-6.294;2023-05-29T08:10:24;16.40;88.30
41720;DHT22;27405;53.316;-6.294;2023-05-29T08:12:50;16.40;88.30
41720;DHT22;27405;53.316;-6.294;2023-05-29T08:15:18;16.40;88.40
41720;DHT22;27405;53.316;-6.294;2023-05-29T08:17:43;16.40;88.20
41720;DHT22;27405;53.316;-6.294;2023-05-29T08:20:09;16.50;88.10
41720;DHT22;27405;53.316;-6.294;2023-05-29T08:22:35;16.50;88.70
41720;DHT22;27405;53.316;-6.294;2023-05-29T08:25:01;16.60;88.10
41720;DHT22;27405;53.316;-6.294;2023-05-29T08:27:27;16.60;88.10
41720;DHT22;27405;53.316;-6.294;2023-05-29T08:29:53;16.70;88.10
41720;DHT22;27405;53.316;-6.294;2023-05-29T08:32:20;16.70;88.00
41720;DHT22;27405;53.316;-6.294;2023-05-29T08:34:46;16.70;87.80
41720;DHT22;27405;53.316;-6.294;2023-05-29T08:37:12;16.70;87.80
41720;DHT22;27405;53.316;-6.294;2023-05-29T08:39:38;16.70;87.80
41720;DHT22;27405;53.316;-6.294;2023-05-29T08:42:07;16.70;87.70
41720;DHT22;27405;53.316;-6.294;2023-05-29T08:44:33;16.70;87.40
41720;DHT22;27405;53.316;-6.294;2023-05-29T08:47:05;16.70;87.10
41720;DHT22;27405;53.316;-6.294;2023-05-29T08:49:41;16.70;86.60
41720;DHT22;27405;53.316;-6.294;2023-05-29T08:52:18;16.70;86.30
41720;DHT22;27405;53.316;-6.294;2023-05-29T08:54:44;16.70;86.10
41720;DHT22;27405;53.316;-6.294;2023-05-29T08:57:13;16.70;86.20
41720;DHT22;27405;53.316;-6.294;2023-05-29T08:59:43;16.90;85.90
41720;DHT22;27405;53.316;-6.294;2023-05-29T09:02:11;16.90;85.30
41720;DHT22;27405;53.316;-6.294;2023-05-29T09:04:37;17.00;84.90
41720;DHT22;27405;53.316;-6.294;2023-05-29T09:07:04;17.00;84.40
41720;DHT22;27405;53.316;-6.294;2023-05-29T09:09:34;17.00;84.00
41720;DHT22;27405;53.316;-6.294;2023-05-29T09:12:00;17.10;83.50
41720;DHT22;27405;53.316;-6.294;2023-05-29T09:14:39;17.10;83.00
41720;DHT22;27405;53.316;-6.294;2023-05-29T09:17:07;17.20;82.80
41720;DHT22;27405;53.316;-6.294;2023-05-29T09:19:34;17.20;82.10
41720;DHT22;27405;53.316;-6.294;2023-05-29T09:22:05;17.20;81.30
41720;DHT22;27405;53.316;-6.294;2023-05-29T09:24:35;17.20;80.10
41720;DHT22;27405;53.316;-6.294;2023-05-29T09:27:02;17.20;79.30
41720;DHT22;27405;53.316;-6.294;2023-05-29T09:29:32;17.20;78.70
41720;DHT22;27405;53.316;-6.294;2023-05-29T09:31:58;17.30;77.40
41720;DHT22;27405;53.316;-6.294;2023-05-29T09:34:25;17.30;77.80
41720;DHT22;27405;53.316;-6.294;2023-05-29T09:36:58;17.30;77.20
41720;DHT22;27405;53.316;-6.294;2023-05-29T09:39:28;17.40;76.90
41720;DHT22;27405;53.316;-6.294;2023-05-29T09:41:53;17.40;76.40
41720;DHT22;27405;53.316;-6.294;2023-05-29T09:44:19;17.40;76.30
41720;DHT22;27405;53.316;-6.294;2023-05-29T09:46:48;17.40;76.10
41720;DHT22;27405;53.316;-6.294;2023-05-29T09:49:14;17.50;76.00
41720;DHT22;27405;53.316;-6.294;2023-05-29T09:51:42;17.60;75.90
41720;DHT22;27405;53.316;-6.294;2023-05-29T09:54:16;17.60;75.00
41720;DHT22;27405;53.316;-6.294;2023-05-29T09:56:43;17.60;74.40
41720;DHT22;27405;53.316;-6.294;2023-05-29T09:59:13;17.60;74.10
41720;DHT22;27405;53.316;-6.294;2023-05-29T10:01:43;17.60;73.50
41720;DHT22;27405;53.316;-6.294;2023-05-29T10:04:12;17.60;73.10
41720;DHT22;27405;53.316;-6.294;2023-05-29T10:06:41;17.60;73.20
41720;DHT22;27405;53.316;-6.294;2023-05-29T10:09:10;17.60;73.00
41720;DHT22;27405;53.316;-6.294;2023-05-29T10:11:38;17.70;72.70
41720;DHT22;27405;53.316;-6.294;2023-05-29T10:14:10;17.70;72.70
41720;DHT22;27405;53.316;-6.294;2023-05-29T10:16:40;17.80;72.50
41720;DHT22;27405;53.316;-6.294;2023-05-29T10:19:12;17.80;72.70
41720;DHT22;27405;53.316;-6.294;2023-05-29T10:21:40;17.90;72.00
41720;DHT22;27405;53.316;-6.294;2023-05-29T10:24:07;18.00;71.40
41720;DHT22;27405;53.316;-6.294;2023-05-29T10:26:36;18.00;71.00
41720;DHT22;27405;53.316;-6.294;2023-05-29T10:29:27;18.00;70.40
41720;DHT22;27405;53.316;-6.294;2023-05-29T10:38:11;18.00;69.70
41720;DHT22;27405;53.316;-6.294;2023-05-29T10:40:35;18.00;70.00
41720;DHT22;27405;53.316;-6.294;2023-05-29T10:43:01;18.10;69.40
41720;DHT22;27405;53.316;-6.294;2023-05-29T10:50:54;18.10;68.30
41720;DHT22;27405;53.316;-6.294;2023-05-29T10:53:30;18.10;68.10
41720;DHT22;27405;53.316;-6.294;2023-05-29T10:55:56;18.10;67.70
41720;DHT22;27405;53.316;-6.294;2023-05-29T10:58:25;18.10;67.70
41720;DHT22;27405;53.316;-6.294;2023-05-29T11:00:52;18.10;67.50
41720;DHT22;27405;53.316;-6.294;2023-05-29T11:03:30;18.10;68.00
41720;DHT22;27405;53.316;-6.294;2023-05-29T11:06:16;18.10;66.90
41720;DHT22;27405;53.316;-6.294;2023-05-29T11:08:47;18.00;67.00
41720;DHT22;27405;53.316;-6.294;2023-05-29T11:13:39;18.10;66.80
41720;DHT22;27405;53.316;-6.294;2023-05-29T11:18:47;18.20;65.60
41720;DHT22;27405;53.316;-6.294;2023-05-29T11:24:04;18.20;64.50
41720;DHT22;27405;53.316;-6.294;2023-05-29T11:26:34;18.20;64.50
41720;DHT22;27405;53.316;-6.294;2023-05-29T11:29:03;18.20;64.60
41720;DHT22;27405;53.316;-6.294;2023-05-29T11:31:37;18.20;64.50
41720;DHT22;27405;53.316;-6.294;2023-05-29T11:34:05;18.10;64.20
41720;DHT22;27405;53.316;-6.294;2023-05-29T11:36:34;18.20;63.80
41720;DHT22;27405;53.316;-6.294;2023-05-29T11:39:03;18.10;63.70
41720;DHT22;27405;53.316;-6.294;2023-05-29T11:41:29;18.10;63.50
41720;DHT22;27405;53.316;-6.294;2023-05-29T11:44:00;18.10;63.50
41720;DHT22;27405;53.316;-6.294;2023-05-29T11:46:27;18.20;63.10
41720;DHT22;27405;53.316;-6.294;2023-05-29T11:48:56;18.10;63.10
41720;DHT22;27405;53.316;-6.294;2023-05-29T11:51:22;18.10;63.60
41720;DHT22;27405;53.316;-6.294;2023-05-29T11:53:48;18.20;63.40
41720;DHT22;27405;53.316;-6.294;2023-05-29T11:56:14;18.20;63.10
41720;DHT22;27405;53.316;-6.294;2023-05-29T11:58:41;18.20;63.30
41720;DHT22;27405;53.316;-6.294;2023-05-29T12:01:07;18.20;63.40
41720;DHT22;27405;53.316;-6.294;2023-05-29T12:03:52;18.20;62.80
41720;DHT22;27405;53.316;-6.294;2023-05-29T12:06:35;18.30;62.90
41720;DHT22;27405;53.316;-6.294;2023-05-29T12:09:03;18.30;62.90
41720;DHT22;27405;53.316;-6.294;2023-05-29T12:11:29;18.30;62.50
41720;DHT22;27405;53.316;-6.294;2023-05-29T12:14:00;18.30;62.90
41720;DHT22;27405;53.316;-6.294;2023-05-29T12:16:27;18.30;63.30
41720;DHT22;27405;53.316;-6.294;2023-05-29T12:18:54;18.40;62.60
41720;DHT22;27405;53.316;-6.294;2023-05-29T12:21:21;18.40;62.80
41720;DHT22;27405;53.316;-6.294;2023-05-29T12:23:48;18.50;63.00
41720;DHT22;27405;53.316;-6.294;2023-05-29T12:26:14;18.50;63.50
41720;DHT22;27405;53.316;-6.294;2023-05-29T12:28:47;18.60;63.20
41720;DHT22;27405;53.316;-6.294;2023-05-29T12:31:13;18.60;63.00
41720;DHT22;27405;53.316;-6.294;2023-05-29T12:33:43;18.60;63.40
41720;DHT22;27405;53.316;-6.294;2023-05-29T12:36:09;18.60;63.60
41720;DHT22;27405;53.316;-6.294;2023-05-29T12:38:49;18.60;64.00
41720;DHT22;27405;53.316;-6.294;2023-05-29T12:41:26;18.70;64.20
41720;DHT22;27405;53.316;-6.294;2023-05-29T12:43:56;18.70;64.30
41720;DHT22;27405;53.316;-6.294;2023-05-29T12:46:23;18.60;64.40
41720;DHT22;27405;53.316;-6.294;2023-05-29T12:48:49;18.70;64.50
41720;DHT22;27405;53.316;-6.294;2023-05-29T12:51:17;18.70;64.60
41720;DHT22;27405;53.316;-6.294;2023-05-29T12:53:43;18.80;65.00
41720;DHT22;27405;53.316;-6.294;2023-05-29T12:56:09;18.90;65.00
41720;DHT22;27405;53.316;-6.294;2023-05-29T12:58:34;18.90;65.00
41720;DHT22;27405;53.316;-6.294;2023-05-29T13:01:02;19.00;64.80
41720;DHT22;27405;53.316;-6.294;2023-05-29T13:03:27;19.10;64.80
41720;DHT22;27405;53.316;-6.294;2023-05-29T13:05:53;19.10;64.90
41720;DHT22;27405;53.316;-6.294;2023-05-29T13:08:19;19.20;65.00
41720;DHT22;27405;53.316;-6.294;2023-05-29T13:10:45;19.30;64.70
41720;DHT22;27405;53.316;-6.294;2023-05-29T13:13:12;19.20;64.80
41720;DHT22;27405;53.316;-6.294;2023-05-29T13:15:38;19.20;64.70
41720;DHT22;27405;53.316;-6.294;2023-05-29T13:18:05;19.20;64.80
41720;DHT22;27405;53.316;-6.294;2023-05-29T13:20:31;19.20;65.30
41720;DHT22;27405;53.316;-6.294;2023-05-29T13:22:57;19.30;65.30
41720;DHT22;27405;53.316;-6.294;2023-05-29T13:25:23;19.30;65.20
41720;DHT22;27405;53.316;-6.294;2023-05-29T13:27:51;19.30;65.00
41720;DHT22;27405;53.316;-6.294;2023-05-29T13:30:17;19.40;65.50
41720;DHT22;27405;53.316;-6.294;2023-05-29T13:32:43;19.50;65.50
41720;DHT22;27405;53.316;-6.294;2023-05-29T13:35:09;19.50;65.60
41720;DHT22;27405;53.316;-6.294;2023-05-29T13:37:38;19.50;65.50
41720;DHT22;27405;53.316;-6.294;2023-05-29T13:40:05;19.60;65.40
41720;DHT22;27405;53.316;-6.294;2023-05-29T13:42:31;19.60;65.10
41720;DHT22;27405;53.316;-6.294;2023-05-29T13:44:57;19.60;65.20
41720;DHT22;27405;53.316;-6.294;2023-05-29T13:47:22;19.60;65.10
41720;DHT22;27405;53.316;-6.294;2023-05-29T13:49:48;19.70;65.10
41720;DHT22;27405;53.316;-6.294;2023-05-29T13:52:14;19.70;64.70
41720;DHT22;27405;53.316;-6.294;2023-05-29T13:54:41;19.70;64.60
41720;DHT22;27405;53.316;-6.294;2023-05-29T13:57:07;19.80;64.60
41720;DHT22;27405;53.316;-6.294;2023-05-29T13:59:34;19.80;65.20
41720;DHT22;27405;53.316;-6.294;2023-05-29T14:02:00;19.80;64.70
41720;DHT22;27405;53.316;-6.294;2023-05-29T14:04:26;19.80;64.60
41720;DHT22;27405;53.316;-6.294;2023-05-29T14:06:52;19.90;64.50
41720;DHT22;27405;53.316;-6.294;2023-05-29T14:09:18;19.90;64.70
41720;DHT22;27405;53.316;-6.294;2023-05-29T14:11:53;20.10;64.60
41720;DHT22;27405;53.316;-6.294;2023-05-29T14:14:19;20.10;64.00
41720;DHT22;27405;53.316;-6.294;2023-05-29T14:16:44;20.20;64.10
41720;DHT22;27405;53.316;-6.294;2023-05-29T14:19:10;20.20;63.90
41720;DHT22;27405;53.316;-6.294;2023-05-29T14:21:36;20.30;63.50
41720;DHT22;27405;53.316;-6.294;2023-05-29T14:24:01;20.50;62.90
41720;DHT22;27405;53.316;-6.294;2023-05-29T14:26:27;20.70;62.20
41720;DHT22;27405;53.316;-6.294;2023-05-29T14:28:53;21.00;61.70
41720;DHT22;27405;53.316;-6.294;2023-05-29T14:31:18;21.40;61.00
41720;DHT22;27405;53.316;-6.294;2023-05-29T14:33:44;21.80;60.10
41720;DHT22;27405;53.316;-6.294;2023-05-29T14:36:10;22.20;59.50
41720;DHT22;27405;53.316;-6.294;2023-05-29T14:38:35;22.60;59.20
41720;DHT22;27405;53.316;-6.294;2023-05-29T14:41:02;23.20;58.80
41720;DHT22;27405;53.316;-6.294;2023-05-29T14:43:27;23.70;57.80
41720;DHT22;27405;53.316;-6.294;2023-05-29T14:45:53;24.10;57.10
41720;DHT22;27405;53.316;-6.294;2023-05-29T14:48:19;24.50;56.20
41720;DHT22;27405;53.316;-6.294;2023-05-29T14:50:44;24.80;55.50
41720;DHT22;27405;53.316;-6.294;2023-05-29T14:53:10;25.00;54.40
41720;DHT22;27405;53.316;-6.294;2023-05-29T14:55:36;25.30;53.70
41720;DHT22;27405;53.316;-6.294;2023-05-29T14:58:03;25.60;53.10
41720;DHT22;27405;53.316;-6.294;2023-05-29T15:00:29;25.90;52.00
41720;DHT22;27405;53.316;-6.294;2023-05-29T15:02:55;26.00;51.50
41720;DHT22;27405;53.316;-6.294;2023-05-29T15:05:22;26.20;51.60
41720;DHT22;27405;53.316;-6.294;2023-05-29T15:07:48;26.50;51.10
41720;DHT22;27405;53.316;-6.294;2023-05-29T15:10:14;26.80;50.40
41720;DHT22;27405;53.316;-6.294;2023-05-29T15:12:42;27.10;50.10
41720;DHT22;27405;53.316;-6.294;2023-05-29T15:15:08;27.30;49.40
41720;DHT22;27405;53.316;-6.294;2023-05-29T15:17:34;27.40;48.60
41720;DHT22;27405;53.316;-6.294;2023-05-29T15:19:59;27.50;48.60
41720;DHT22;27405;53.316;-6.294;2023-05-29T15:22:26;27.70;48.20
41720;DHT22;27405;53.316;-6.294;2023-05-29T15:24:51;27.60;48.10
41720;DHT22;27405;53.316;-6.294;2023-05-29T15:27:17;27.80;48.00
41720;DHT22;27405;53.316;-6.294;2023-05-29T15:29:43;28.10;48.00
41720;DHT22;27405;53.316;-6.294;2023-05-29T15:32:09;28.30;47.20
41720;DHT22;27405;53.316;-6.294;2023-05-29T15:34:35;28.30;47.00
41720;DHT22;27405;53.316;-6.294;2023-05-29T15:37:01;28.40;46.90
41720;DHT22;27405;53.316;-6.294;2023-05-29T15:39:27;28.40;46.90
41720;DHT22;27405;53.316;-6.294;2023-05-29T15:41:52;28.50;47.40